createdAt,value
2023-04-27T00:01:52.171Z,5.99
2023-04-27T00:12:02.082Z,4.9
2023-04-27T00:22:12.979Z,5.99
2023-04-27T00:32:12.588Z,9.56
2023-04-27T00:42:22.607Z,7.16
2023-04-27T00:52:22.206Z,8.12
2023-04-27T01:02:30.663Z,5.87
2023-04-27T01:12:39.416Z,6.18
2023-04-27T01:22:48.292Z,5.89
2023-04-27T01:32:57.263Z,6.8
2023-04-27T01:43:06.395Z,8.26
2023-04-27T01:53:16.460Z,7.86
2023-04-27T02:03:15.637Z,11.4
2023-04-27T02:13:27.880Z,9.17
2023-04-27T02:23:29.199Z,10.17
2023-04-27T02:33:28.160Z,8.5
2023-04-27T02:43:38.194Z,7.38
2023-04-27T02:53:37.437Z,8.95
2023-04-27T03:03:46.627Z,7.56
2023-04-27T03:13:57.197Z,8.98
2023-04-27T03:23:56.010Z,8.74
2023-04-27T03:34:04.815Z,8.68
2023-04-27T03:44:06.075Z,10.25
2023-04-27T03:54:15.068Z,10.59
2023-04-27T04:04:24.245Z,9.4
2023-04-27T04:14:32.929Z,9.23
2023-04-27T04:24:41.635Z,12.86
2023-04-27T04:34:50.586Z,11.55
2023-04-27T04:44:59.841Z,11.51
2023-04-27T04:55:08.720Z,13.5
2023-04-27T05:05:21.785Z,13.23
2023-04-27T05:15:25.636Z,14.26
2023-04-27T05:25:24.448Z,18.13
2023-04-27T05:35:34.043Z,15
2023-04-27T05:45:43.053Z,15.97
2023-04-27T05:55:45.422Z,20.2
2023-04-27T06:05:46.787Z,17.61
2023-04-27T06:15:47.323Z,17.97
2023-04-27T06:25:50.765Z,21.62
2023-04-27T06:35:50.431Z,21.07
2023-04-27T06:46:01.435Z,18.31
2023-04-27T06:56:03.171Z,17.89
2023-04-27T07:06:04.843Z,14.2
2023-04-27T07:16:17.173Z,15.46
2023-04-27T07:26:18.625Z,15.4
2023-04-27T07:36:20.482Z,12.74
2023-04-27T07:46:19.308Z,11.64
2023-04-27T07:56:33.357Z,8.93
2023-04-27T08:06:35.947Z,8.51
2023-04-27T08:16:33.946Z,8.28
2023-04-27T08:26:43.951Z,9.07
2023-04-27T08:36:43.037Z,8.82
2023-04-27T08:46:52.848Z,6.57
2023-04-27T08:57:01.867Z,8.86
2023-04-27T09:07:10.851Z,4.63
2023-04-27T09:17:20.387Z,3.9
2023-04-27T09:27:30.707Z,6.55
2023-04-27T09:37:30.167Z,6.3
2023-04-27T09:47:40.308Z,4.71
2023-04-27T09:57:42.730Z,3.91
2023-04-27T10:07:44.043Z,6.93
2023-04-27T10:17:43.251Z,4.31
2023-04-27T10:27:44.832Z,3.7
2023-04-27T10:37:45.241Z,5.69
2023-04-27T10:47:45.907Z,4.68
2023-04-27T10:57:45.156Z,4.75
2023-04-27T11:07:55.727Z,5.47
2023-04-27T11:17:56.112Z,4.9
2023-04-27T11:27:56.237Z,3.63
2023-04-27T11:37:56.466Z,5.22
2023-04-27T11:48:10.406Z,2.85
2023-04-27T11:58:08.853Z,4.9
2023-04-27T12:08:19.594Z,4.29
2023-04-27T12:18:21.493Z,3.42
2023-04-27T12:28:25.887Z,5.53
2023-04-27T12:38:28.300Z,5.63
2023-04-27T12:48:38.404Z,4.3
2023-04-27T12:58:30.229Z,4.2
2023-04-27T13:08:40.044Z,3.3
2023-04-27T13:18:49.700Z,3.34
2023-04-27T13:28:54.868Z,6.13
2023-04-27T13:39:17.170Z,5.83
2023-04-27T13:49:04.995Z,6.93
2023-04-27T13:59:12.704Z,6.83
2023-04-27T14:09:15.734Z,6.47
2023-04-27T14:19:19.423Z,5.95
2023-04-27T14:29:29.610Z,5.14
2023-04-27T14:39:33.744Z,4.64
2023-04-27T14:49:41.231Z,4.07
2023-04-27T14:59:53.761Z,4.3
2023-04-27T15:09:56.887Z,3.75
2023-04-27T15:19:56.648Z,5.73
2023-04-27T15:29:58.652Z,8.26
2023-04-27T15:39:58.739Z,6.13
2023-04-27T15:50:09.724Z,5.24
2023-04-27T16:00:25.491Z,5.6
2023-04-27T16:10:17.981Z,5.15
2023-04-27T16:20:23.636Z,7.23
2023-04-27T16:30:26.412Z,5.48
2023-04-27T16:40:32.792Z,5.18
2023-04-27T16:50:35.214Z,5.56
2023-04-27T17:00:35.755Z,5.26
2023-04-27T17:10:39.235Z,5.88
2023-04-27T17:20:40.959Z,4.59
2023-04-27T17:30:47.982Z,5.53
2023-04-27T17:40:59.514Z,5.21
2023-04-27T17:51:07.189Z,8.17
2023-04-27T18:01:05.508Z,5.61
2023-04-27T18:11:19.464Z,5.15
2023-04-27T18:21:18.390Z,5.54
2023-04-27T18:31:19.305Z,7.65
2023-04-27T18:41:28.638Z,6.45
2023-04-27T18:51:29.413Z,5.55
2023-04-27T19:01:38.384Z,7.45
2023-04-27T19:11:52.545Z,9.23
2023-04-27T19:21:54.950Z,9.11
2023-04-27T19:31:55.439Z,8.31
2023-04-27T19:41:57.132Z,9.03
2023-04-27T19:51:59.275Z,9.43
2023-04-27T20:01:59.313Z,8.94
2023-04-27T20:12:08.209Z,8.68
2023-04-27T20:22:16.149Z,7.01
2023-04-27T20:32:25.150Z,6.74
2023-04-27T20:42:34.566Z,14.72
2023-04-27T20:52:43.509Z,10.42
2023-04-27T21:02:52.971Z,10.41
2023-04-27T21:12:53.228Z,11.09
2023-04-27T21:23:02.385Z,10.47
2023-04-27T21:33:06.214Z,10.08
2023-04-27T21:43:24.310Z,10.75
2023-04-27T21:53:29.312Z,9.14
2023-04-27T22:03:28.384Z,10.47
2023-04-27T22:13:29.498Z,10.42
2023-04-27T22:23:30.760Z,9.89
2023-04-27T22:33:30.747Z,8.33
2023-04-27T22:43:29.442Z,10.18
2023-04-27T22:53:38.175Z,7.97
2023-04-27T23:03:47.227Z,6.62
2023-04-27T23:13:55.831Z,5.79
2023-04-27T23:24:04.647Z,6.9
2023-04-27T23:34:05.307Z,14.12
2023-04-27T23:44:15.863Z,14.06
2023-04-27T23:54:14.663Z,12.06
